Hauptseite
METAR-TAF:

METAR-TAF

Flughäfen :

Gran Canaria, Spanien

Flughafen Gran Canaria

Breite: 27-56N, Länge: 015-23W, Höhe: 23 m

Beobachtung

Neuester Wetterbericht von vor 23 Minuten, um 11:30 UTC
Wind 13 kt aus Nordost
Temperatur 20°C
Luftfeuchtigkeit 64%
Luftdruck 1024 hPa
Sichtweite 10 km oder mehr
Leicht bewölkt in der Höhe von 2500 ft

METAR: GCLP 281130Z 04013KT 9999 FEW025 20/13 Q1024 NOSIG

Zeit: 12:53 (11:53 UTC)

Prognose

Neuester Wetterbericht von vor 3 Stunden und 53 Minuten, um 08:00 UTC
Gültige Prognose vom 28 um 09 UTC bis 29 um 09 UTC
Wind 15 kt aus Nord/Nordost
Sichtweite 10 km oder mehr
Leicht bewölkt in der Höhe von 3000 ft
Übergehend zu
vom 28 um 19 UTC bis 28 um 21 UTC
Wind 13 kt aus Nord/Nordwest
Übergehend zu
vom 29 um 08 UTC bis 29 um 09 UTC
Wind 16 kt aus Nord/Nordost

TAF: GCLP 280800Z 2809/2909 03015KT 9999 FEW030 TX22/2813Z TN15/2906Z BECMG 2819/2821 33013KT BECMG 2908/2909 03016KT

Wetterbeobachtungen und Prognosen von mehr als 4000 Flughäfen (METAR und TAF Bericht).

Die verfügbaren Stationen werden durch gelbe und rote Markierungen auf der Karte dargestellt.

Führen Sie die Maus auf sie, um den Namen der Station zu sehen.

Darauf klicken, um die Beobachtung von Wetterbeobachtungen und Prognosen zu sehen.

Um die Karte zu ändern : klicken Sie auf den grünen Tasten mit einem schwarzen Kreuz Zum Vergrößern, auf den grünen Button mit einem Gedankenstrich zu verkleinern, oder auf die grünen Pfeile für benachbarte Karten.


METAR-TAF: